sensor_id;sensor_type;location;lat;lon;timestamp;temperature;humidity
23568;DHT22;11962;50.838;4.430;2022-10-17T00:00:54;16.60;99.90
23568;DHT22;11962;50.838;4.430;2022-10-17T00:03:20;16.60;99.90
23568;DHT22;11962;50.838;4.430;2022-10-17T00:05:47;16.60;99.90
23568;DHT22;11962;50.838;4.430;2022-10-17T00:08:15;16.60;99.90
23568;DHT22;11962;50.838;4.430;2022-10-17T00:10:41;16.60;99.90
23568;DHT22;11962;50.838;4.430;2022-10-17T00:13:07;16.60;99.90
23568;DHT22;11962;50.838;4.430;2022-10-17T00:22:40;16.60;99.90
23568;DHT22;11962;50.838;4.430;2022-10-17T00:25:06;16.60;99.90
23568;DHT22;11962;50.838;4.430;2022-10-17T00:27:39;16.60;99.90
23568;DHT22;11962;50.838;4.430;2022-10-17T00:30:08;16.60;99.90
23568;DHT22;11962;50.838;4.430;2022-10-17T00:32:40;16.60;99.90
23568;DHT22;11962;50.838;4.430;2022-10-17T00:35:07;16.50;99.90
23568;DHT22;11962;50.838;4.430;2022-10-17T00:37:33;16.50;99.90
23568;DHT22;11962;50.838;4.430;2022-10-17T00:39:59;16.60;99.90
23568;DHT22;11962;50.838;4.430;2022-10-17T00:42:26;16.60;99.90
23568;DHT22;11962;50.838;4.430;2022-10-17T00:45:28;16.60;99.90
23568;DHT22;11962;50.838;4.430;2022-10-17T00:47:59;16.60;99.90
23568;DHT22;11962;50.838;4.430;2022-10-17T00:50:26;16.70;99.90
23568;DHT22;11962;50.838;4.430;2022-10-17T00:52:53;16.70;99.90
23568;DHT22;11962;50.838;4.430;2022-10-17T00:55:23;16.70;99.90
23568;DHT22;11962;50.838;4.430;2022-10-17T00:57:49;16.70;99.90
23568;DHT22;11962;50.838;4.430;2022-10-17T01:00:17;16.80;99.90
23568;DHT22;11962;50.838;4.430;2022-10-17T01:02:43;16.80;99.90
23568;DHT22;11962;50.838;4.430;2022-10-17T01:05:09;16.80;99.90
23568;DHT22;11962;50.838;4.430;2022-10-17T01:07:37;16.80;99.90
23568;DHT22;11962;50.838;4.430;2022-10-17T01:10:05;16.90;99.90
23568;DHT22;11962;50.838;4.430;2022-10-17T01:27:05;17.00;99.90
23568;DHT22;11962;50.838;4.430;2022-10-17T01:32:25;17.00;99.90
23568;DHT22;11962;50.838;4.430;2022-10-17T01:35:02;17.00;99.90
23568;DHT22;11962;50.838;4.430;2022-10-17T01:40:39;17.00;99.90
23568;DHT22;11962;50.838;4.430;2022-10-17T01:43:06;17.10;99.90
23568;DHT22;11962;50.838;4.430;2022-10-17T01:45:57;17.10;99.90
23568;DHT22;11962;50.838;4.430;2022-10-17T01:48:33;17.10;99.90
23568;DHT22;11962;50.838;4.430;2022-10-17T01:51:10;17.10;99.90
23568;DHT22;11962;50.838;4.430;2022-10-17T01:53:43;17.20;99.90
23568;DHT22;11962;50.838;4.430;2022-10-17T01:56:12;17.10;99.90
23568;DHT22;11962;50.838;4.430;2022-10-17T01:59:06;17.20;99.90
23568;DHT22;11962;50.838;4.430;2022-10-17T02:01:36;17.20;99.90
23568;DHT22;11962;50.838;4.430;2022-10-17T02:04:03;17.20;99.90
23568;DHT22;11962;50.838;4.430;2022-10-17T02:06:34;17.20;99.90
23568;DHT22;11962;50.838;4.430;2022-10-17T02:08:59;17.20;99.90
23568;DHT22;11962;50.838;4.430;2022-10-17T02:11:26;17.30;99.90
23568;DHT22;11962;50.838;4.430;2022-10-17T02:25:23;17.30;99.90
23568;DHT22;11962;50.838;4.430;2022-10-17T02:27:55;17.40;99.90
23568;DHT22;11962;50.838;4.430;2022-10-17T02:30:41;17.40;99.90
23568;DHT22;11962;50.838;4.430;2022-10-17T02:33:37;17.40;99.90
23568;DHT22;11962;50.838;4.430;2022-10-17T02:36:11;17.50;99.90
23568;DHT22;11962;50.838;4.430;2022-10-17T02:38:39;17.50;99.90
23568;DHT22;11962;50.838;4.430;2022-10-17T02:41:08;17.50;99.90
23568;DHT22;11962;50.838;4.430;2022-10-17T02:43:35;17.40;99.90
23568;DHT22;11962;50.838;4.430;2022-10-17T02:46:02;17.50;99.90
23568;DHT22;11962;50.838;4.430;2022-10-17T02:48:53;17.50;99.90
23568;DHT22;11962;50.838;4.430;2022-10-17T02:51:40;17.60;99.90
23568;DHT22;11962;50.838;4.430;2022-10-17T02:54:18;17.60;99.90
23568;DHT22;11962;50.838;4.430;2022-10-17T02:59:29;17.60;99.90
23568;DHT22;11962;50.838;4.430;2022-10-17T03:01:55;17.70;99.90
23568;DHT22;11962;50.838;4.430;2022-10-17T03:07:42;17.80;99.90
23568;DHT22;11962;50.838;4.430;2022-10-17T03:10:08;17.80;99.90
23568;DHT22;11962;50.838;4.430;2022-10-17T03:12:34;17.90;99.90
23568;DHT22;11962;50.838;4.430;2022-10-17T03:14:59;17.90;99.90
23568;DHT22;11962;50.838;4.430;2022-10-17T03:17:40;17.90;99.90
23568;DHT22;11962;50.838;4.430;2022-10-17T03:20:06;18.00;99.90
23568;DHT22;11962;50.838;4.430;2022-10-17T03:22:32;17.90;99.90
23568;DHT22;11962;50.838;4.430;2022-10-17T03:24:58;17.90;99.90
23568;DHT22;11962;50.838;4.430;2022-10-17T03:27:24;17.90;99.90
23568;DHT22;11962;50.838;4.430;2022-10-17T03:29:50;17.90;99.90
23568;DHT22;11962;50.838;4.430;2022-10-17T03:32:15;17.90;99.90
23568;DHT22;11962;50.838;4.430;2022-10-17T03:34:44;17.90;99.90
23568;DHT22;11962;50.838;4.430;2022-10-17T03:37:10;17.90;99.90
23568;DHT22;11962;50.838;4.430;2022-10-17T03:39:35;17.90;99.90
23568;DHT22;11962;50.838;4.430;2022-10-17T03:42:01;17.90;99.90
23568;DHT22;11962;50.838;4.430;2022-10-17T03:44:26;17.90;99.90
23568;DHT22;11962;50.838;4.430;2022-10-17T03:46:52;17.80;99.90
23568;DHT22;11962;50.838;4.430;2022-10-17T03:49:55;17.80;99.90
23568;DHT22;11962;50.838;4.430;2022-10-17T03:52:20;17.80;99.90
23568;DHT22;11962;50.838;4.430;2022-10-17T03:54:46;17.80;99.90
23568;DHT22;11962;50.838;4.430;2022-10-17T03:57:12;17.80;99.90
23568;DHT22;11962;50.838;4.430;2022-10-17T03:59:37;17.80;99.90
23568;DHT22;11962;50.838;4.430;2022-10-17T04:02:03;17.80;99.90
23568;DHT22;11962;50.838;4.430;2022-10-17T04:04:34;17.80;99.90
23568;DHT22;11962;50.838;4.430;2022-10-17T04:06:59;17.80;99.90
23568;DHT22;11962;50.838;4.430;2022-10-17T04:09:25;17.80;99.90
23568;DHT22;11962;50.838;4.430;2022-10-17T04:11:50;17.80;99.90
23568;DHT22;11962;50.838;4.430;2022-10-17T04:14:16;17.80;99.90
23568;DHT22;11962;50.838;4.430;2022-10-17T04:16:42;17.80;99.90
23568;DHT22;11962;50.838;4.430;2022-10-17T04:19:11;17.80;99.90
23568;DHT22;11962;50.838;4.430;2022-10-17T04:21:37;17.80;99.90
23568;DHT22;11962;50.838;4.430;2022-10-17T04:24:03;17.80;99.90
23568;DHT22;11962;50.838;4.430;2022-10-17T04:26:29;17.80;99.90
23568;DHT22;11962;50.838;4.430;2022-10-17T04:28:55;17.80;99.90
23568;DHT22;11962;50.838;4.430;2022-10-17T04:31:20;17.80;99.90
23568;DHT22;11962;50.838;4.430;2022-10-17T04:33:47;17.80;99.90
23568;DHT22;11962;50.838;4.430;2022-10-17T04:36:16;17.70;99.90
23568;DHT22;11962;50.838;4.430;2022-10-17T04:38:42;17.70;99.90
23568;DHT22;11962;50.838;4.430;2022-10-17T04:41:11;17.70;99.90
23568;DHT22;11962;50.838;4.430;2022-10-17T04:43:38;17.70;99.90
23568;DHT22;11962;50.838;4.430;2022-10-17T04:46:06;17.70;99.90
23568;DHT22;11962;50.838;4.430;2022-10-17T04:51:48;17.70;99.90
23568;DHT22;11962;50.838;4.430;2022-10-17T04:54:14;17.70;99.90
23568;DHT22;11962;50.838;4.430;2022-10-17T04:56:40;17.70;99.90
23568;DHT22;11962;50.838;4.430;2022-10-17T04:59:05;17.80;99.90
23568;DHT22;11962;50.838;4.430;2022-10-17T05:01:31;17.80;99.90
23568;DHT22;11962;50.838;4.430;2022-10-17T05:07:19;17.80;99.90
23568;DHT22;11962;50.838;4.430;2022-10-17T05:09:44;17.80;99.90
23568;DHT22;11962;50.838;4.430;2022-10-17T05:12:10;17.80;99.90
23568;DHT22;11962;50.838;4.430;2022-10-17T05:14:36;17.80;99.90
23568;DHT22;11962;50.838;4.430;2022-10-17T05:17:01;17.80;99.90
23568;DHT22;11962;50.838;4.430;2022-10-17T05:19:32;17.80;99.90
23568;DHT22;11962;50.838;4.430;2022-10-17T05:21:58;17.80;99.90
23568;DHT22;11962;50.838;4.430;2022-10-17T05:24:24;17.90;99.90
23568;DHT22;11962;50.838;4.430;2022-10-17T05:26:50;17.90;99.90
23568;DHT22;11962;50.838;4.430;2022-10-17T05:29:16;17.90;99.90
23568;DHT22;11962;50.838;4.430;2022-10-17T05:31:42;17.90;99.90
23568;DHT22;11962;50.838;4.430;2022-10-17T05:34:17;17.80;99.90
23568;DHT22;11962;50.838;4.430;2022-10-17T05:36:42;17.90;99.90
23568;DHT22;11962;50.838;4.430;2022-10-17T05:39:08;17.90;99.90
23568;DHT22;11962;50.838;4.430;2022-10-17T05:41:34;18.00;99.90
23568;DHT22;11962;50.838;4.430;2022-10-17T05:43:59;18.00;99.90
23568;DHT22;11962;50.838;4.430;2022-10-17T05:46:25;18.10;99.90
23568;DHT22;11962;50.838;4.430;2022-10-17T05:48:51;18.10;99.90
23568;DHT22;11962;50.838;4.430;2022-10-17T05:51:17;18.10;99.90
23568;DHT22;11962;50.838;4.430;2022-10-17T05:53:43;18.10;99.90
23568;DHT22;11962;50.838;4.430;2022-10-17T05:56:11;18.20;99.90
23568;DHT22;11962;50.838;4.430;2022-10-17T05:58:41;18.20;99.90
23568;DHT22;11962;50.838;4.430;2022-10-17T06:01:08;18.20;99.90
23568;DHT22;11962;50.838;4.430;2022-10-17T06:03:34;18.20;99.90
23568;DHT22;11962;50.838;4.430;2022-10-17T06:06:25;18.20;99.90
23568;DHT22;11962;50.838;4.430;2022-10-17T06:08:50;18.30;99.90
23568;DHT22;11962;50.838;4.430;2022-10-17T06:11:16;18.30;99.90
23568;DHT22;11962;50.838;4.430;2022-10-17T06:13:42;18.30;99.90
23568;DHT22;11962;50.838;4.430;2022-10-17T06:16:08;18.30;99.90
23568;DHT22;11962;50.838;4.430;2022-10-17T06:18:34;18.40;99.90
23568;DHT22;11962;50.838;4.430;2022-10-17T06:24:21;18.40;99.90
23568;DHT22;11962;50.838;4.430;2022-10-17T06:26:47;18.40;99.90
23568;DHT22;11962;50.838;4.430;2022-10-17T06:29:14;18.40;99.90
23568;DHT22;11962;50.838;4.430;2022-10-17T06:31:40;18.50;99.90
23568;DHT22;11962;50.838;4.430;2022-10-17T06:34:06;18.50;99.90
23568;DHT22;11962;50.838;4.430;2022-10-17T06:37:09;18.50;99.90
23568;DHT22;11962;50.838;4.430;2022-10-17T06:39:34;18.60;99.90
23568;DHT22;11962;50.838;4.430;2022-10-17T06:42:00;18.60;99.90
23568;DHT22;11962;50.838;4.430;2022-10-17T06:44:26;18.70;99.90
23568;DHT22;11962;50.838;4.430;2022-10-17T06:46:59;18.70;99.90
23568;DHT22;11962;50.838;4.430;2022-10-17T06:49:25;18.80;99.90
23568;DHT22;11962;50.838;4.430;2022-10-17T06:52:13;18.80;99.90
23568;DHT22;11962;50.838;4.430;2022-10-17T06:54:39;19.00;99.90
23568;DHT22;11962;50.838;4.430;2022-10-17T06:57:04;19.00;99.90
23568;DHT22;11962;50.838;4.430;2022-10-17T06:59:30;19.10;99.90
23568;DHT22;11962;50.838;4.430;2022-10-17T07:01:56;19.30;99.90
23568;DHT22;11962;50.838;4.430;2022-10-17T07:04:21;19.30;99.90
23568;DHT22;11962;50.838;4.430;2022-10-17T07:06:47;19.30;99.90
23568;DHT22;11962;50.838;4.430;2022-10-17T07:09:13;19.30;99.90
23568;DHT22;11962;50.838;4.430;2022-10-17T07:11:38;19.40;99.90
23568;DHT22;11962;50.838;4.430;2022-10-17T07:14:04;19.50;99.90
23568;DHT22;11962;50.838;4.430;2022-10-17T07:16:30;19.40;99.90
23568;DHT22;11962;50.838;4.430;2022-10-17T07:18:56;19.50;99.90
23568;DHT22;11962;50.838;4.430;2022-10-17T07:21:22;19.50;99.90
23568;DHT22;11962;50.838;4.430;2022-10-17T07:23:47;19.50;99.90
23568;DHT22;11962;50.838;4.430;2022-10-17T07:26:14;19.50;99.90
23568;DHT22;11962;50.838;4.430;2022-10-17T07:28:42;19.70;99.90
23568;DHT22;11962;50.838;4.430;2022-10-17T07:31:10;19.70;99.90
23568;DHT22;11962;50.838;4.430;2022-10-17T07:33:36;19.70;99.90
23568;DHT22;11962;50.838;4.430;2022-10-17T07:36:08;19.70;99.90
23568;DHT22;11962;50.838;4.430;2022-10-17T07:38:34;19.70;99.90
23568;DHT22;11962;50.838;4.430;2022-10-17T07:41:02;19.70;99.90
23568;DHT22;11962;50.838;4.430;2022-10-17T07:43:29;19.60;99.90
23568;DHT22;11962;50.838;4.430;2022-10-17T07:45:55;19.50;99.90
23568;DHT22;11962;50.838;4.430;2022-10-17T07:48:22;19.40;99.90
23568;DHT22;11962;50.838;4.430;2022-10-17T07:51:12;19.40;99.90
23568;DHT22;11962;50.838;4.430;2022-10-17T07:53:38;19.40;99.90
23568;DHT22;11962;50.838;4.430;2022-10-17T07:56:08;19.40;99.90
23568;DHT22;11962;50.838;4.430;2022-10-17T07:58:34;19.30;99.90
23568;DHT22;11962;50.838;4.430;2022-10-17T08:01:03;19.30;99.90
23568;DHT22;11962;50.838;4.430;2022-10-17T08:03:29;19.40;99.90
23568;DHT22;11962;50.838;4.430;2022-10-17T08:06:01;19.40;99.90
23568;DHT22;11962;50.838;4.430;2022-10-17T08:08:27;19.50;99.90
23568;DHT22;11962;50.838;4.430;2022-10-17T08:10:54;19.50;99.90
23568;DHT22;11962;50.838;4.430;2022-10-17T08:13:21;19.60;99.90
23568;DHT22;11962;50.838;4.430;2022-10-17T08:15:51;19.60;99.90
23568;DHT22;11962;50.838;4.430;2022-10-17T08:18:17;19.70;99.90
23568;DHT22;11962;50.838;4.430;2022-10-17T08:20:59;19.60;99.90
23568;DHT22;11962;50.838;4.430;2022-10-17T08:23:25;19.50;99.90
23568;DHT22;11962;50.838;4.430;2022-10-17T08:25:51;19.40;99.90
23568;DHT22;11962;50.838;4.430;2022-10-17T08:28:17;19.40;99.90
23568;DHT22;11962;50.838;4.430;2022-10-17T08:30:43;19.30;99.90
23568;DHT22;11962;50.838;4.430;2022-10-17T08:33:08;19.30;99.90
23568;DHT22;11962;50.838;4.430;2022-10-17T08:35:37;19.20;99.90
23568;DHT22;11962;50.838;4.430;2022-10-17T08:38:03;19.30;99.90
23568;DHT22;11962;50.838;4.430;2022-10-17T08:40:30;19.40;99.90
23568;DHT22;11962;50.838;4.430;2022-10-17T08:43:24;19.60;99.90
23568;DHT22;11962;50.838;4.430;2022-10-17T08:45:57;19.80;99.90
23568;DHT22;11962;50.838;4.430;2022-10-17T08:48:26;19.90;99.90
23568;DHT22;11962;50.838;4.430;2022-10-17T08:51:20;19.80;99.90
23568;DHT22;11962;50.838;4.430;2022-10-17T08:54:23;19.70;99.90
23568;DHT22;11962;50.838;4.430;2022-10-17T08:56:45;19.70;99.90
23568;DHT22;11962;50.838;4.430;2022-10-17T08:59:17;19.70;99.90
23568;DHT22;11962;50.838;4.430;2022-10-17T09:15:36;19.80;99.90
23568;DHT22;11962;50.838;4.430;2022-10-17T09:18:10;19.80;99.90
23568;DHT22;11962;50.838;4.430;2022-10-17T09:20:51;19.80;99.90
23568;DHT22;11962;50.838;4.430;2022-10-17T09:25:49;19.80;99.90
23568;DHT22;11962;50.838;4.430;2022-10-17T09:28:31;19.90;99.90
23568;DHT22;11962;50.838;4.430;2022-10-17T09:31:11;19.90;99.90
23568;DHT22;11962;50.838;4.430;2022-10-17T09:33:41;19.90;99.90
23568;DHT22;11962;50.838;4.430;2022-10-17T09:36:37;19.90;99.90
23568;DHT22;11962;50.838;4.430;2022-10-17T09:39:04;19.90;99.90
23568;DHT22;11962;50.838;4.430;2022-10-17T09:41:40;19.90;99.90
23568;DHT22;11962;50.838;4.430;2022-10-17T09:47:28;19.90;99.90
23568;DHT22;11962;50.838;4.430;2022-10-17T09:49:56;20.00;99.90
23568;DHT22;11962;50.838;4.430;2022-10-17T09:52:38;20.10;99.90
23568;DHT22;11962;50.838;4.430;2022-10-17T09:58:02;20.20;99.90
23568;DHT22;11962;50.838;4.430;2022-10-17T10:00:33;20.20;99.90
23568;DHT22;11962;50.838;4.430;2022-10-17T10:03:21;20.30;99.90
23568;DHT22;11962;50.838;4.430;2022-10-17T10:06:12;20.30;99.90
23568;DHT22;11962;50.838;4.430;2022-10-17T10:08:51;20.30;99.90
23568;DHT22;11962;50.838;4.430;2022-10-17T10:11:22;20.30;99.90
23568;DHT22;11962;50.838;4.430;2022-10-17T10:13:48;20.20;99.90
23568;DHT22;11962;50.838;4.430;2022-10-17T10:16:19;20.20;99.90
23568;DHT22;11962;50.838;4.430;2022-10-17T10:18:46;20.20;99.90
23568;DHT22;11962;50.838;4.430;2022-10-17T10:21:24;20.20;99.90
23568;DHT22;11962;50.838;4.430;2022-10-17T10:24:13;20.20;99.90
23568;DHT22;11962;50.838;4.430;2022-10-17T10:26:45;20.30;99.90
23568;DHT22;11962;50.838;4.430;2022-10-17T10:29:30;20.30;99.90
23568;DHT22;11962;50.838;4.430;2022-10-17T10:32:26;20.40;99.90
23568;DHT22;11962;50.838;4.430;2022-10-17T10:37:46;20.60;99.90
23568;DHT22;11962;50.838;4.430;2022-10-17T10:40:23;20.80;99.90
23568;DHT22;11962;50.838;4.430;2022-10-17T10:42:53;20.80;99.90
23568;DHT22;11962;50.838;4.430;2022-10-17T10:45:26;20.80;99.90
23568;DHT22;11962;50.838;4.430;2022-10-17T10:48:00;20.80;99.90
23568;DHT22;11962;50.838;4.430;2022-10-17T10:50:39;20.80;99.90
23568;DHT22;11962;50.838;4.430;2022-10-17T10:55:59;20.70;99.90
23568;DHT22;11962;50.838;4.430;2022-10-17T11:06:42;20.70;99.90
23568;DHT22;11962;50.838;4.430;2022-10-17T11:13:26;20.60;99.90
23568;DHT22;11962;50.838;4.430;2022-10-17T11:16:17;20.60;99.90
23568;DHT22;11962;50.838;4.430;2022-10-17T11:18:49;20.60;99.90
23568;DHT22;11962;50.838;4.430;2022-10-17T11:21:26;20.50;99.90
23568;DHT22;11962;50.838;4.430;2022-10-17T11:24:03;20.50;99.90
23568;DHT22;11962;50.838;4.430;2022-10-17T11:26:32;20.50;99.90
23568;DHT22;11962;50.838;4.430;2022-10-17T11:29:02;20.50;99.90
23568;DHT22;11962;50.838;4.430;2022-10-17T11:31:36;20.50;99.90
23568;DHT22;11962;50.838;4.430;2022-10-17T11:34:04;20.50;99.90
23568;DHT22;11962;50.838;4.430;2022-10-17T11:36:41;20.40;99.90
23568;DHT22;11962;50.838;4.430;2022-10-17T11:39:15;20.40;99.90
23568;DHT22;11962;50.838;4.430;2022-10-17T11:41:54;20.40;99.90
23568;DHT22;11962;50.838;4.430;2022-10-17T11:47:01;20.40;99.90
23568;DHT22;11962;50.838;4.430;2022-10-17T11:49:34;20.40;99.90
23568;DHT22;11962;50.838;4.430;2022-10-17T11:52:58;20.50;99.90
23568;DHT22;11962;50.838;4.430;2022-10-17T11:55:28;20.70;99.90
23568;DHT22;11962;50.838;4.430;2022-10-17T12:00:25;21.20;99.90
23568;DHT22;11962;50.838;4.430;2022-10-17T12:11:38;21.30;99.90
23568;DHT22;11962;50.838;4.430;2022-10-17T12:14:38;21.20;99.90
23568;DHT22;11962;50.838;4.430;2022-10-17T12:17:27;21.00;99.90
23568;DHT22;11962;50.838;4.430;2022-10-17T12:19:53;21.00;99.90
23568;DHT22;11962;50.838;4.430;2022-10-17T12:22:23;21.10;99.90
23568;DHT22;11962;50.838;4.430;2022-10-17T12:25:01;21.10;99.90
23568;DHT22;11962;50.838;4.430;2022-10-17T12:32:28;21.20;99.90
23568;DHT22;11962;50.838;4.430;2022-10-17T12:34:55;21.10;99.90
23568;DHT22;11962;50.838;4.430;2022-10-17T12:45:50;20.90;99.90
23568;DHT22;11962;50.838;4.430;2022-10-17T12:51:03;21.10;99.90
23568;DHT22;11962;50.838;4.430;2022-10-17T12:53:44;21.20;99.90
23568;DHT22;11962;50.838;4.430;2022-10-17T12:56:14;21.20;99.90
23568;DHT22;11962;50.838;4.430;2022-10-17T12:58:50;21.20;99.90
23568;DHT22;11962;50.838;4.430;2022-10-17T13:01:28;21.20;99.90
23568;DHT22;11962;50.838;4.430;2022-10-17T13:03:54;21.20;99.90
23568;DHT22;11962;50.838;4.430;2022-10-17T13:06:23;21.20;99.90
23568;DHT22;11962;50.838;4.430;2022-10-17T13:11:44;21.40;99.90
23568;DHT22;11962;50.838;4.430;2022-10-17T13:14:11;21.50;99.90
23568;DHT22;11962;50.838;4.430;2022-10-17T13:16:49;21.60;99.90
23568;DHT22;11962;50.838;4.430;2022-10-17T13:19:20;21.60;99.90
23568;DHT22;11962;50.838;4.430;2022-10-17T13:21:58;21.70;99.90
23568;DHT22;11962;50.838;4.430;2022-10-17T13:24:47;21.80;99.90
23568;DHT22;11962;50.838;4.430;2022-10-17T13:27:27;22.00;99.90
23568;DHT22;11962;50.838;4.430;2022-10-17T13:29:55;22.00;99.90
23568;DHT22;11962;50.838;4.430;2022-10-17T13:32:23;22.10;99.90
23568;DHT22;11962;50.838;4.430;2022-10-17T13:37:29;22.30;99.90
23568;DHT22;11962;50.838;4.430;2022-10-17T13:39:58;22.00;99.90
23568;DHT22;11962;50.838;4.430;2022-10-17T13:42:24;21.90;99.90
23568;DHT22;11962;50.838;4.430;2022-10-17T13:44:51;22.00;99.90
23568;DHT22;11962;50.838;4.430;2022-10-17T13:47:29;22.00;99.90
23568;DHT22;11962;50.838;4.430;2022-10-17T13:49:57;21.90;99.90
23568;DHT22;11962;50.838;4.430;2022-10-17T13:52:27;21.90;99.90
23568;DHT22;11962;50.838;4.430;2022-10-17T13:54:53;21.80;99.90
23568;DHT22;11962;50.838;4.430;2022-10-17T13:57:23;21.70;99.90
23568;DHT22;11962;50.838;4.430;2022-10-17T13:59:58;21.60;99.90
23568;DHT22;11962;50.838;4.430;2022-10-17T14:02:33;21.50;99.90
23568;DHT22;11962;50.838;4.430;2022-10-17T14:07:38;21.40;99.90
23568;DHT22;11962;50.838;4.430;2022-10-17T14:10:34;21.40;99.90
23568;DHT22;11962;50.838;4.430;2022-10-17T14:13:02;21.40;99.90
23568;DHT22;11962;50.838;4.430;2022-10-17T14:15:30;21.40;99.90
23568;DHT22;11962;50.838;4.430;2022-10-17T14:18:00;21.50;99.90
23568;DHT22;11962;50.838;4.430;2022-10-17T14:20:26;21.40;99.90
23568;DHT22;11962;50.838;4.430;2022-10-17T14:22:57;21.30;99.90
23568;DHT22;11962;50.838;4.430;2022-10-17T14:25:37;21.30;99.90
23568;DHT22;11962;50.838;4.430;2022-10-17T14:30:54;21.40;99.90
23568;DHT22;11962;50.838;4.430;2022-10-17T14:33:33;21.50;99.90
23568;DHT22;11962;50.838;4.430;2022-10-17T14:36:00;21.50;99.90
23568;DHT22;11962;50.838;4.430;2022-10-17T14:38:27;21.60;99.90
23568;DHT22;11962;50.838;4.430;2022-10-17T14:43:24;21.70;99.90
23568;DHT22;11962;50.838;4.430;2022-10-17T14:45:51;21.70;99.90
23568;DHT22;11962;50.838;4.430;2022-10-17T14:48:19;21.70;99.90
23568;DHT22;11962;50.838;4.430;2022-10-17T14:51:09;21.70;99.90
23568;DHT22;11962;50.838;4.430;2022-10-17T14:53:36;21.70;99.90
23568;DHT22;11962;50.838;4.430;2022-10-17T14:56:23;21.70;99.90
23568;DHT22;11962;50.838;4.430;2022-10-17T14:58:49;21.70;99.90
23568;DHT22;11962;50.838;4.430;2022-10-17T15:01:16;21.60;99.90
23568;DHT22;11962;50.838;4.430;2022-10-17T15:03:42;21.60;99.90
23568;DHT22;11962;50.838;4.430;2022-10-17T15:06:18;21.50;99.90
23568;DHT22;11962;50.838;4.430;2022-10-17T15:08:44;21.40;99.90
23568;DHT22;11962;50.838;4.430;2022-10-17T15:11:10;21.40;99.90
23568;DHT22;11962;50.838;4.430;2022-10-17T15:13:37;21.30;99.90
23568;DHT22;11962;50.838;4.430;2022-10-17T15:16:24;21.30;99.90
23568;DHT22;11962;50.838;4.430;2022-10-17T15:18:51;21.20;99.90
23568;DHT22;11962;50.838;4.430;2022-10-17T15:21:20;21.20;99.90
23568;DHT22;11962;50.838;4.430;2022-10-17T15:23:46;21.10;99.90
23568;DHT22;11962;50.838;4.430;2022-10-17T15:26:23;21.00;99.90
23568;DHT22;11962;50.838;4.430;2022-10-17T15:28:50;21.00;99.90
23568;DHT22;11962;50.838;4.430;2022-10-17T15:31:22;21.00;99.90
23568;DHT22;11962;50.838;4.430;2022-10-17T15:33:48;21.00;99.90
23568;DHT22;11962;50.838;4.430;2022-10-17T15:38:44;20.90;99.90
23568;DHT22;11962;50.838;4.430;2022-10-17T15:41:19;20.90;99.90
23568;DHT22;11962;50.838;4.430;2022-10-17T15:43:46;20.90;99.90
23568;DHT22;11962;50.838;4.430;2022-10-17T15:46:15;20.80;99.90
23568;DHT22;11962;50.838;4.430;2022-10-17T15:48:42;20.80;99.90
23568;DHT22;11962;50.838;4.430;2022-10-17T15:51:08;20.80;99.90
23568;DHT22;11962;50.838;4.430;2022-10-17T15:53:34;20.70;99.90
23568;DHT22;11962;50.838;4.430;2022-10-17T15:55:59;20.70;99.90
23568;DHT22;11962;50.838;4.430;2022-10-17T15:58:33;20.60;99.90
23568;DHT22;11962;50.838;4.430;2022-10-17T16:01:00;20.60;99.90
23568;DHT22;11962;50.838;4.430;2022-10-17T16:03:26;20.60;99.90
23568;DHT22;11962;50.838;4.430;2022-10-17T16:05:52;20.50;99.90
23568;DHT22;11962;50.838;4.430;2022-10-17T16:08:18;20.50;99.90
23568;DHT22;11962;50.838;4.430;2022-10-17T16:10:43;20.40;99.90
23568;DHT22;11962;50.838;4.430;2022-10-17T16:13:17;20.30;99.90
23568;DHT22;11962;50.838;4.430;2022-10-17T16:15:44;20.30;99.90
23568;DHT22;11962;50.838;4.430;2022-10-17T16:18:10;20.20;99.90
23568;DHT22;11962;50.838;4.430;2022-10-17T16:20:35;20.20;99.90
23568;DHT22;11962;50.838;4.430;2022-10-17T16:23:21;20.10;99.90
23568;DHT22;11962;50.838;4.430;2022-10-17T16:25:46;20.10;99.90
23568;DHT22;11962;50.838;4.430;2022-10-17T16:28:12;20.00;99.90
23568;DHT22;11962;50.838;4.430;2022-10-17T16:30:41;20.00;99.90
23568;DHT22;11962;50.838;4.430;2022-10-17T16:33:07;20.00;99.90
23568;DHT22;11962;50.838;4.430;2022-10-17T16:35:32;20.00;99.90
23568;DHT22;11962;50.838;4.430;2022-10-17T16:37:58;19.90;99.90
23568;DHT22;11962;50.838;4.430;2022-10-17T16:40:24;19.80;99.90
23568;DHT22;11962;50.838;4.430;2022-10-17T16:43:11;19.80;99.90
23568;DHT22;11962;50.838;4.430;2022-10-17T16:45:36;19.70;99.90
23568;DHT22;11962;50.838;4.430;2022-10-17T16:48:02;19.60;99.90
23568;DHT22;11962;50.838;4.430;2022-10-17T16:50:28;19.60;99.90
23568;DHT22;11962;50.838;4.430;2022-10-17T16:52:55;19.60;99.90
23568;DHT22;11962;50.838;4.430;2022-10-17T16:55:21;19.50;99.90
23568;DHT22;11962;50.838;4.430;2022-10-17T16:57:46;19.50;99.90
23568;DHT22;11962;50.838;4.430;2022-10-17T17:00:13;19.50;99.90
23568;DHT22;11962;50.838;4.430;2022-10-17T17:02:39;19.50;99.90
23568;DHT22;11962;50.838;4.430;2022-10-17T17:05:05;19.40;99.90
23568;DHT22;11962;50.838;4.430;2022-10-17T17:07:31;19.40;99.90
23568;DHT22;11962;50.838;4.430;2022-10-17T17:09:57;19.30;99.90
23568;DHT22;11962;50.838;4.430;2022-10-17T17:12:23;19.30;99.90
23568;DHT22;11962;50.838;4.430;2022-10-17T17:14:49;19.20;99.90
23568;DHT22;11962;50.838;4.430;2022-10-17T17:17:14;19.20;99.90
23568;DHT22;11962;50.838;4.430;2022-10-17T17:19:40;19.10;99.90
23568;DHT22;11962;50.838;4.430;2022-10-17T17:22:06;19.10;99.90
23568;DHT22;11962;50.838;4.430;2022-10-17T17:24:31;19.10;99.90
23568;DHT22;11962;50.838;4.430;2022-10-17T17:26:57;19.10;99.90
23568;DHT22;11962;50.838;4.430;2022-10-17T17:29:23;19.10;99.90
23568;DHT22;11962;50.838;4.430;2022-10-17T17:31:49;19.00;99.90
23568;DHT22;11962;50.838;4.430;2022-10-17T17:34:15;19.00;99.90
23568;DHT22;11962;50.838;4.430;2022-10-17T17:36:41;18.90;99.90
23568;DHT22;11962;50.838;4.430;2022-10-17T17:39:10;18.90;99.90
23568;DHT22;11962;50.838;4.430;2022-10-17T17:41:37;18.90;99.90
23568;DHT22;11962;50.838;4.430;2022-10-17T17:44:04;18.80;99.90
23568;DHT22;11962;50.838;4.430;2022-10-17T17:46:30;18.80;99.90
23568;DHT22;11962;50.838;4.430;2022-10-17T17:48:57;18.80;99.90
23568;DHT22;11962;50.838;4.430;2022-10-17T17:51:25;18.70;99.90
23568;DHT22;11962;50.838;4.430;2022-10-17T17:53:51;18.70;99.90
23568;DHT22;11962;50.838;4.430;2022-10-17T17:56:20;18.70;99.90
23568;DHT22;11962;50.838;4.430;2022-10-17T17:58:59;18.70;99.90
23568;DHT22;11962;50.838;4.430;2022-10-17T18:01:30;18.70;99.90
23568;DHT22;11962;50.838;4.430;2022-10-17T18:03:57;18.70;99.90
23568;DHT22;11962;50.838;4.430;2022-10-17T18:06:23;18.70;99.90
23568;DHT22;11962;50.838;4.430;2022-10-17T18:08:52;18.70;99.90
23568;DHT22;11962;50.838;4.430;2022-10-17T18:11:18;18.70;99.90